Alta Loma, California
Current Conditions -  °F | °C
As of 3:53 PM on Friday 28 Nov 2014 (Local Time) from KONT Reporting Station
Clear Clear  
Wind Chill: 80°   Ceiling: Unl
Heat Index: 80°   Visibility: 10mi
Dew Point: 26°   Wind: 8mph
Humidity: 14%   Direction: 260°W
Pressure: 29.9"   Gusts: NA
Location:  34.12°N, 117.6°W
Report Text: KONT 282353Z 26007KT 10SM CLR 27/M03 A2990 RMK AO2 SLP113 T02671033 10283 20211 56013
Loading
Personal Weather Stations






























Interactive Weather Map New forecast layout! Learn more

10-Day Weather Forecast

Advertisements
Track Severe Weather on mobile